sensor_id;sensor_type;location;lat;lon;timestamp;P1;durP1;ratioP1;P2;durP2;ratioP2
22715;SDS011;11525;51.152;4.456;2023-07-20T00:01:22;11.57;;;4.75;;
22715;SDS011;11525;51.152;4.456;2023-07-20T00:03:48;12.43;;;6.35;;
22715;SDS011;11525;51.152;4.456;2023-07-20T00:06:20;7.90;;;4.50;;
22715;SDS011;11525;51.152;4.456;2023-07-20T00:08:46;15.15;;;5.15;;
22715;SDS011;11525;51.152;4.456;2023-07-20T00:11:12;10.23;;;4.85;;
22715;SDS011;11525;51.152;4.456;2023-07-20T00:13:39;9.68;;;5.20;;
22715;SDS011;11525;51.152;4.456;2023-07-20T00:16:05;13.88;;;5.10;;
22715;SDS011;11525;51.152;4.456;2023-07-20T00:18:30;8.88;;;4.72;;
22715;SDS011;11525;51.152;4.456;2023-07-20T00:20:56;9.38;;;4.40;;
22715;SDS011;11525;51.152;4.456;2023-07-20T00:23:22;10.85;;;4.75;;
22715;SDS011;11525;51.152;4.456;2023-07-20T00:25:48;10.32;;;4.80;;
22715;SDS011;11525;51.152;4.456;2023-07-20T00:28:14;11.40;;;4.80;;
22715;SDS011;11525;51.152;4.456;2023-07-20T00:30:40;15.07;;;5.38;;
22715;SDS011;11525;51.152;4.456;2023-07-20T00:33:09;12.95;;;5.07;;
22715;SDS011;11525;51.152;4.456;2023-07-20T00:35:35;14.65;;;4.50;;
22715;SDS011;11525;51.152;4.456;2023-07-20T00:38:01;18.83;;;5.07;;
22715;SDS011;11525;51.152;4.456;2023-07-20T00:40:27;17.35;;;4.90;;
22715;SDS011;11525;51.152;4.456;2023-07-20T00:42:53;9.65;;;5.03;;
22715;SDS011;11525;51.152;4.456;2023-07-20T00:45:19;9.60;;;4.32;;
22715;SDS011;11525;51.152;4.456;2023-07-20T00:47:44;10.43;;;4.97;;
22715;SDS011;11525;51.152;4.456;2023-07-20T00:50:11;13.65;;;4.88;;
22715;SDS011;11525;51.152;4.456;2023-07-20T00:52:37;11.02;;;5.05;;
22715;SDS011;11525;51.152;4.456;2023-07-20T00:55:05;12.55;;;5.70;;
22715;SDS011;11525;51.152;4.456;2023-07-20T00:57:32;11.10;;;5.35;;
22715;SDS011;11525;51.152;4.456;2023-07-20T00:59:58;12.30;;;4.85;;
22715;SDS011;11525;51.152;4.456;2023-07-20T01:02:24;13.85;;;5.68;;
22715;SDS011;11525;51.152;4.456;2023-07-20T01:04:49;15.30;;;5.40;;
22715;SDS011;11525;51.152;4.456;2023-07-20T01:07:31;14.35;;;5.35;;
22715;SDS011;11525;51.152;4.456;2023-07-20T01:10:03;8.90;;;4.65;;
22715;SDS011;11525;51.152;4.456;2023-07-20T01:12:52;14.27;;;6.35;;
22715;SDS011;11525;51.152;4.456;2023-07-20T01:15:20;13.05;;;6.13;;
22715;SDS011;11525;51.152;4.456;2023-07-20T01:17:46;16.65;;;6.28;;
22715;SDS011;11525;51.152;4.456;2023-07-20T01:20:15;10.02;;;5.97;;
22715;SDS011;11525;51.152;4.456;2023-07-20T01:31:16;17.67;;;6.50;;
22715;SDS011;11525;51.152;4.456;2023-07-20T01:33:43;15.45;;;7.13;;
22715;SDS011;11525;51.152;4.456;2023-07-20T01:36:10;18.13;;;7.00;;
22715;SDS011;11525;51.152;4.456;2023-07-20T01:38:36;14.18;;;6.70;;
22715;SDS011;11525;51.152;4.456;2023-07-20T01:41:03;13.75;;;6.57;;
22715;SDS011;11525;51.152;4.456;2023-07-20T01:43:30;12.43;;;6.80;;
22715;SDS011;11525;51.152;4.456;2023-07-20T01:45:56;13.95;;;6.30;;
22715;SDS011;11525;51.152;4.456;2023-07-20T01:48:22;12.98;;;6.20;;
22715;SDS011;11525;51.152;4.456;2023-07-20T01:50:48;9.48;;;6.25;;
22715;SDS011;11525;51.152;4.456;2023-07-20T01:53:13;12.90;;;5.97;;
22715;SDS011;11525;51.152;4.456;2023-07-20T01:55:39;13.85;;;6.80;;
22715;SDS011;11525;51.152;4.456;2023-07-20T01:58:05;10.70;;;6.25;;
22715;SDS011;11525;51.152;4.456;2023-07-20T02:00:31;10.68;;;6.40;;
22715;SDS011;11525;51.152;4.456;2023-07-20T02:02:57;12.90;;;6.80;;
22715;SDS011;11525;51.152;4.456;2023-07-20T02:05:23;12.68;;;6.38;;
22715;SDS011;11525;51.152;4.456;2023-07-20T02:07:49;13.30;;;6.82;;
22715;SDS011;11525;51.152;4.456;2023-07-20T02:10:15;14.90;;;7.10;;
22715;SDS011;11525;51.152;4.456;2023-07-20T02:12:41;11.27;;;6.00;;
22715;SDS011;11525;51.152;4.456;2023-07-20T02:15:07;12.10;;;6.45;;
22715;SDS011;11525;51.152;4.456;2023-07-20T02:17:33;10.90;;;6.25;;
22715;SDS011;11525;51.152;4.456;2023-07-20T02:19:59;13.80;;;7.20;;
22715;SDS011;11525;51.152;4.456;2023-07-20T02:22:25;16.25;;;6.65;;
22715;SDS011;11525;51.152;4.456;2023-07-20T02:24:50;11.75;;;6.90;;
22715;SDS011;11525;51.152;4.456;2023-07-20T02:27:16;15.15;;;7.10;;
22715;SDS011;11525;51.152;4.456;2023-07-20T02:29:42;10.05;;;6.90;;
22715;SDS011;11525;51.152;4.456;2023-07-20T02:32:08;11.82;;;8.00;;
22715;SDS011;11525;51.152;4.456;2023-07-20T02:34:37;10.73;;;6.90;;
22715;SDS011;11525;51.152;4.456;2023-07-20T02:37:03;14.00;;;7.18;;
22715;SDS011;11525;51.152;4.456;2023-07-20T02:39:29;14.82;;;7.38;;
22715;SDS011;11525;51.152;4.456;2023-07-20T02:41:56;11.55;;;7.63;;
22715;SDS011;11525;51.152;4.456;2023-07-20T02:44:22;16.00;;;8.02;;
22715;SDS011;11525;51.152;4.456;2023-07-20T02:46:48;12.18;;;7.07;;
22715;SDS011;11525;51.152;4.456;2023-07-20T02:49:17;12.40;;;8.23;;
22715;SDS011;11525;51.152;4.456;2023-07-20T02:51:43;14.38;;;8.77;;
22715;SDS011;11525;51.152;4.456;2023-07-20T02:54:09;15.30;;;8.57;;
22715;SDS011;11525;51.152;4.456;2023-07-20T02:56:35;14.48;;;8.80;;
22715;SDS011;11525;51.152;4.456;2023-07-20T02:59:01;18.70;;;8.80;;
22715;SDS011;11525;51.152;4.456;2023-07-20T03:01:28;11.60;;;8.43;;
22715;SDS011;11525;51.152;4.456;2023-07-20T03:03:57;17.65;;;9.18;;
22715;SDS011;11525;51.152;4.456;2023-07-20T03:06:23;11.70;;;8.57;;
22715;SDS011;11525;51.152;4.456;2023-07-20T03:08:49;12.52;;;8.55;;
22715;SDS011;11525;51.152;4.456;2023-07-20T03:11:17;14.48;;;8.85;;
22715;SDS011;11525;51.152;4.456;2023-07-20T03:13:44;10.85;;;8.40;;
22715;SDS011;11525;51.152;4.456;2023-07-20T03:16:10;10.93;;;7.65;;
22715;SDS011;11525;51.152;4.456;2023-07-20T03:18:40;18.30;;;9.43;;
22715;SDS011;11525;51.152;4.456;2023-07-20T03:21:07;12.55;;;8.68;;
22715;SDS011;11525;51.152;4.456;2023-07-20T03:23:34;13.65;;;8.63;;
22715;SDS011;11525;51.152;4.456;2023-07-20T03:26:02;12.13;;;9.13;;
22715;SDS011;11525;51.152;4.456;2023-07-20T03:28:28;10.65;;;8.23;;
22715;SDS011;11525;51.152;4.456;2023-07-20T03:30:54;11.05;;;8.75;;
22715;SDS011;11525;51.152;4.456;2023-07-20T03:33:30;13.48;;;9.20;;
22715;SDS011;11525;51.152;4.456;2023-07-20T03:35:56;12.38;;;9.15;;
22715;SDS011;11525;51.152;4.456;2023-07-20T03:38:23;13.65;;;8.82;;
22715;SDS011;11525;51.152;4.456;2023-07-20T03:40:53;12.98;;;8.52;;
22715;SDS011;11525;51.152;4.456;2023-07-20T03:43:23;16.95;;;9.27;;
22715;SDS011;11525;51.152;4.456;2023-07-20T03:45:51;13.77;;;8.45;;
22715;SDS011;11525;51.152;4.456;2023-07-20T03:48:17;14.40;;;9.15;;
22715;SDS011;11525;51.152;4.456;2023-07-20T03:50:45;15.95;;;9.82;;
22715;SDS011;11525;51.152;4.456;2023-07-20T03:53:12;14.95;;;8.90;;
22715;SDS011;11525;51.152;4.456;2023-07-20T03:55:38;15.07;;;9.52;;
22715;SDS011;11525;51.152;4.456;2023-07-20T03:58:05;13.85;;;9.05;;
22715;SDS011;11525;51.152;4.456;2023-07-20T04:00:32;12.68;;;9.13;;
22715;SDS011;11525;51.152;4.456;2023-07-20T04:02:57;12.90;;;9.32;;
22715;SDS011;11525;51.152;4.456;2023-07-20T04:05:24;14.10;;;9.65;;
22715;SDS011;11525;51.152;4.456;2023-07-20T04:07:50;14.40;;;9.68;;
22715;SDS011;11525;51.152;4.456;2023-07-20T04:10:17;14.65;;;8.75;;
22715;SDS011;11525;51.152;4.456;2023-07-20T04:12:44;12.82;;;8.80;;
22715;SDS011;11525;51.152;4.456;2023-07-20T04:15:12;9.57;;;7.95;;
22715;SDS011;11525;51.152;4.456;2023-07-20T04:17:41;11.30;;;8.48;;
22715;SDS011;11525;51.152;4.456;2023-07-20T04:20:07;10.85;;;8.57;;
22715;SDS011;11525;51.152;4.456;2023-07-20T04:22:33;11.73;;;8.63;;
22715;SDS011;11525;51.152;4.456;2023-07-20T04:24:59;11.63;;;8.85;;
22715;SDS011;11525;51.152;4.456;2023-07-20T04:27:25;13.25;;;8.55;;
22715;SDS011;11525;51.152;4.456;2023-07-20T04:29:51;13.48;;;8.80;;
22715;SDS011;11525;51.152;4.456;2023-07-20T04:32:18;14.55;;;9.40;;
22715;SDS011;11525;51.152;4.456;2023-07-20T04:34:44;14.25;;;8.80;;
22715;SDS011;11525;51.152;4.456;2023-07-20T04:37:10;9.90;;;7.95;;
22715;SDS011;11525;51.152;4.456;2023-07-20T04:39:35;12.88;;;8.32;;
22715;SDS011;11525;51.152;4.456;2023-07-20T04:42:01;13.23;;;8.73;;
22715;SDS011;11525;51.152;4.456;2023-07-20T04:44:27;10.05;;;7.97;;
22715;SDS011;11525;51.152;4.456;2023-07-20T04:46:53;10.93;;;8.27;;
22715;SDS011;11525;51.152;4.456;2023-07-20T04:49:19;12.90;;;8.07;;
22715;SDS011;11525;51.152;4.456;2023-07-20T04:51:45;13.25;;;8.32;;
22715;SDS011;11525;51.152;4.456;2023-07-20T04:54:11;11.13;;;8.30;;
22715;SDS011;11525;51.152;4.456;2023-07-20T04:56:37;11.30;;;7.22;;
22715;SDS011;11525;51.152;4.456;2023-07-20T04:59:02;10.73;;;7.90;;
22715;SDS011;11525;51.152;4.456;2023-07-20T05:01:28;12.13;;;7.40;;
22715;SDS011;11525;51.152;4.456;2023-07-20T05:03:54;9.35;;;6.88;;
22715;SDS011;11525;51.152;4.456;2023-07-20T05:06:20;9.80;;;7.05;;
22715;SDS011;11525;51.152;4.456;2023-07-20T05:08:46;10.00;;;7.55;;
22715;SDS011;11525;51.152;4.456;2023-07-20T05:11:11;9.00;;;6.72;;
22715;SDS011;11525;51.152;4.456;2023-07-20T05:13:37;8.68;;;6.90;;
22715;SDS011;11525;51.152;4.456;2023-07-20T05:16:03;11.20;;;6.80;;
22715;SDS011;11525;51.152;4.456;2023-07-20T05:18:29;8.57;;;6.97;;
22715;SDS011;11525;51.152;4.456;2023-07-20T05:20:55;9.00;;;7.35;;
22715;SDS011;11525;51.152;4.456;2023-07-20T05:23:21;10.73;;;7.85;;
22715;SDS011;11525;51.152;4.456;2023-07-20T05:25:47;7.85;;;6.78;;
22715;SDS011;11525;51.152;4.456;2023-07-20T05:28:23;9.88;;;6.78;;
22715;SDS011;11525;51.152;4.456;2023-07-20T05:30:50;9.52;;;6.78;;
22715;SDS011;11525;51.152;4.456;2023-07-20T05:33:19;10.73;;;6.93;;
22715;SDS011;11525;51.152;4.456;2023-07-20T05:35:45;10.05;;;6.90;;
22715;SDS011;11525;51.152;4.456;2023-07-20T05:38:11;8.15;;;6.40;;
22715;SDS011;11525;51.152;4.456;2023-07-20T05:40:40;7.80;;;6.13;;
22715;SDS011;11525;51.152;4.456;2023-07-20T05:43:09;9.60;;;6.90;;
22715;SDS011;11525;51.152;4.456;2023-07-20T05:45:36;9.32;;;7.13;;
22715;SDS011;11525;51.152;4.456;2023-07-20T05:48:02;8.23;;;6.25;;
22715;SDS011;11525;51.152;4.456;2023-07-20T05:50:28;7.63;;;6.28;;
22715;SDS011;11525;51.152;4.456;2023-07-20T05:52:54;14.60;;;6.30;;
22715;SDS011;11525;51.152;4.456;2023-07-20T05:55:20;6.35;;;5.72;;
22715;SDS011;11525;51.152;4.456;2023-07-20T05:57:46;7.35;;;5.30;;
22715;SDS011;11525;51.152;4.456;2023-07-20T06:00:13;7.15;;;4.80;;
22715;SDS011;11525;51.152;4.456;2023-07-20T06:02:39;5.30;;;4.80;;
22715;SDS011;11525;51.152;4.456;2023-07-20T06:05:06;3.65;;;3.35;;
22715;SDS011;11525;51.152;4.456;2023-07-20T06:07:38;6.35;;;4.85;;
22715;SDS011;11525;51.152;4.456;2023-07-20T06:10:05;4.55;;;4.15;;
22715;SDS011;11525;51.152;4.456;2023-07-20T06:12:31;4.93;;;4.53;;
22715;SDS011;11525;51.152;4.456;2023-07-20T06:15:01;6.18;;;3.65;;
22715;SDS011;11525;51.152;4.456;2023-07-20T06:17:29;3.90;;;3.30;;
22715;SDS011;11525;51.152;4.456;2023-07-20T06:19:55;3.75;;;3.40;;
22715;SDS011;11525;51.152;4.456;2023-07-20T06:22:20;3.38;;;2.75;;
22715;SDS011;11525;51.152;4.456;2023-07-20T06:24:46;7.47;;;3.38;;
22715;SDS011;11525;51.152;4.456;2023-07-20T06:27:12;4.47;;;3.22;;
22715;SDS011;11525;51.152;4.456;2023-07-20T06:29:38;4.60;;;4.13;;
22715;SDS011;11525;51.152;4.456;2023-07-20T06:32:04;8.00;;;3.25;;
22715;SDS011;11525;51.152;4.456;2023-07-20T06:34:30;3.50;;;3.20;;
22715;SDS011;11525;51.152;4.456;2023-07-20T06:36:56;9.00;;;3.22;;
22715;SDS011;11525;51.152;4.456;2023-07-20T06:39:22;3.50;;;3.20;;
22715;SDS011;11525;51.152;4.456;2023-07-20T06:41:48;3.85;;;3.45;;
22715;SDS011;11525;51.152;4.456;2023-07-20T06:44:13;7.82;;;4.63;;
22715;SDS011;11525;51.152;4.456;2023-07-20T06:46:39;6.63;;;4.63;;
22715;SDS011;11525;51.152;4.456;2023-07-20T06:49:06;6.05;;;5.05;;
22715;SDS011;11525;51.152;4.456;2023-07-20T06:51:33;4.90;;;4.40;;
22715;SDS011;11525;51.152;4.456;2023-07-20T06:53:58;8.40;;;4.60;;
22715;SDS011;11525;51.152;4.456;2023-07-20T06:56:24;6.65;;;4.53;;
22715;SDS011;11525;51.152;4.456;2023-07-20T06:58:50;5.80;;;4.00;;
22715;SDS011;11525;51.152;4.456;2023-07-20T07:01:16;3.67;;;3.30;;
22715;SDS011;11525;51.152;4.456;2023-07-20T07:03:42;5.60;;;3.97;;
22715;SDS011;11525;51.152;4.456;2023-07-20T07:06:09;5.80;;;3.60;;
22715;SDS011;11525;51.152;4.456;2023-07-20T07:08:35;4.22;;;3.83;;
22715;SDS011;11525;51.152;4.456;2023-07-20T07:11:01;5.97;;;3.78;;
22715;SDS011;11525;51.152;4.456;2023-07-20T07:13:27;3.33;;;2.95;;
22715;SDS011;11525;51.152;4.456;2023-07-20T07:15:53;3.35;;;3.05;;
22715;SDS011;11525;51.152;4.456;2023-07-20T07:18:18;5.63;;;3.22;;
22715;SDS011;11525;51.152;4.456;2023-07-20T07:20:52;3.08;;;2.78;;
22715;SDS011;11525;51.152;4.456;2023-07-20T07:23:18;5.85;;;3.05;;
22715;SDS011;11525;51.152;4.456;2023-07-20T07:25:44;3.58;;;3.13;;
22715;SDS011;11525;51.152;4.456;2023-07-20T07:28:10;4.10;;;3.30;;
22715;SDS011;11525;51.152;4.456;2023-07-20T07:30:35;4.03;;;3.17;;
22715;SDS011;11525;51.152;4.456;2023-07-20T07:33:01;3.65;;;3.05;;
22715;SDS011;11525;51.152;4.456;2023-07-20T07:35:27;4.75;;;3.67;;
22715;SDS011;11525;51.152;4.456;2023-07-20T07:37:53;3.58;;;2.90;;
22715;SDS011;11525;51.152;4.456;2023-07-20T07:40:18;4.57;;;2.95;;
22715;SDS011;11525;51.152;4.456;2023-07-20T07:42:44;10.32;;;2.78;;
22715;SDS011;11525;51.152;4.456;2023-07-20T07:45:10;4.65;;;2.88;;
22715;SDS011;11525;51.152;4.456;2023-07-20T07:47:36;3.42;;;3.10;;
22715;SDS011;11525;51.152;4.456;2023-07-20T07:50:02;5.20;;;2.53;;
22715;SDS011;11525;51.152;4.456;2023-07-20T07:52:28;2.47;;;2.05;;
22715;SDS011;11525;51.152;4.456;2023-07-20T07:54:53;3.20;;;2.25;;
22715;SDS011;11525;51.152;4.456;2023-07-20T07:57:19;3.15;;;2.40;;
22715;SDS011;11525;51.152;4.456;2023-07-20T07:59:45;2.55;;;2.35;;
22715;SDS011;11525;51.152;4.456;2023-07-20T08:02:11;3.28;;;2.60;;
22715;SDS011;11525;51.152;4.456;2023-07-20T08:04:37;3.03;;;2.67;;
22715;SDS011;11525;51.152;4.456;2023-07-20T08:07:04;3.30;;;2.58;;
22715;SDS011;11525;51.152;4.456;2023-07-20T08:09:30;3.13;;;2.35;;
22715;SDS011;11525;51.152;4.456;2023-07-20T08:11:55;4.78;;;2.53;;
22715;SDS011;11525;51.152;4.456;2023-07-20T08:14:21;2.53;;;2.30;;
22715;SDS011;11525;51.152;4.456;2023-07-20T08:16:47;1.92;;;1.50;;
22715;SDS011;11525;51.152;4.456;2023-07-20T08:19:13;2.55;;;2.25;;
22715;SDS011;11525;51.152;4.456;2023-07-20T08:21:39;2.60;;;2.15;;
22715;SDS011;11525;51.152;4.456;2023-07-20T08:24:04;2.25;;;1.98;;
22715;SDS011;11525;51.152;4.456;2023-07-20T08:26:30;2.17;;;1.98;;
22715;SDS011;11525;51.152;4.456;2023-07-20T08:28:56;4.35;;;2.30;;
22715;SDS011;11525;51.152;4.456;2023-07-20T08:31:22;3.25;;;2.30;;
22715;SDS011;11525;51.152;4.456;2023-07-20T08:33:48;2.28;;;1.92;;
22715;SDS011;11525;51.152;4.456;2023-07-20T08:36:14;3.05;;;2.33;;
22715;SDS011;11525;51.152;4.456;2023-07-20T08:38:40;2.90;;;2.25;;
22715;SDS011;11525;51.152;4.456;2023-07-20T08:41:05;3.47;;;1.77;;
22715;SDS011;11525;51.152;4.456;2023-07-20T08:43:32;3.55;;;2.10;;
22715;SDS011;11525;51.152;4.456;2023-07-20T08:45:59;2.17;;;1.98;;
22715;SDS011;11525;51.152;4.456;2023-07-20T08:48:26;2.92;;;2.55;;
22715;SDS011;11525;51.152;4.456;2023-07-20T08:50:52;2.58;;;2.30;;
22715;SDS011;11525;51.152;4.456;2023-07-20T08:53:19;3.05;;;2.15;;
22715;SDS011;11525;51.152;4.456;2023-07-20T08:55:45;4.63;;;1.95;;
22715;SDS011;11525;51.152;4.456;2023-07-20T08:58:13;3.30;;;1.60;;
22715;SDS011;11525;51.152;4.456;2023-07-20T09:00:41;2.08;;;1.20;;
22715;SDS011;11525;51.152;4.456;2023-07-20T09:03:07;1.85;;;1.63;;
22715;SDS011;11525;51.152;4.456;2023-07-20T09:05:33;2.25;;;1.58;;
22715;SDS011;11525;51.152;4.456;2023-07-20T09:08:00;2.25;;;1.35;;
22715;SDS011;11525;51.152;4.456;2023-07-20T09:10:29;1.63;;;1.33;;
22715;SDS011;11525;51.152;4.456;2023-07-20T09:12:54;2.15;;;1.95;;
22715;SDS011;11525;51.152;4.456;2023-07-20T09:15:21;2.67;;;1.92;;
22715;SDS011;11525;51.152;4.456;2023-07-20T09:17:48;3.10;;;2.40;;
22715;SDS011;11525;51.152;4.456;2023-07-20T09:20:18;2.05;;;1.75;;
22715;SDS011;11525;51.152;4.456;2023-07-20T09:22:44;4.03;;;2.22;;
22715;SDS011;11525;51.152;4.456;2023-07-20T09:25:13;2.60;;;2.15;;
22715;SDS011;11525;51.152;4.456;2023-07-20T09:27:41;5.25;;;1.80;;
22715;SDS011;11525;51.152;4.456;2023-07-20T09:30:09;4.70;;;1.95;;
22715;SDS011;11525;51.152;4.456;2023-07-20T09:32:48;4.43;;;2.00;;
22715;SDS011;11525;51.152;4.456;2023-07-20T09:35:16;5.53;;;2.00;;
22715;SDS011;11525;51.152;4.456;2023-07-20T09:37:50;3.38;;;2.22;;
22715;SDS011;11525;51.152;4.456;2023-07-20T09:40:37;4.85;;;2.10;;
22715;SDS011;11525;51.152;4.456;2023-07-20T09:43:06;2.60;;;2.33;;
22715;SDS011;11525;51.152;4.456;2023-07-20T09:45:34;2.78;;;2.13;;
22715;SDS011;11525;51.152;4.456;2023-07-20T09:48:09;2.38;;;2.13;;
22715;SDS011;11525;51.152;4.456;2023-07-20T09:50:42;3.17;;;2.00;;
22715;SDS011;11525;51.152;4.456;2023-07-20T09:53:14;4.53;;;2.00;;
22715;SDS011;11525;51.152;4.456;2023-07-20T09:55:43;3.72;;;1.85;;
22715;SDS011;11525;51.152;4.456;2023-07-20T09:58:10;3.40;;;2.38;;
22715;SDS011;11525;51.152;4.456;2023-07-20T10:00:36;2.58;;;2.10;;
22715;SDS011;11525;51.152;4.456;2023-07-20T10:03:04;3.40;;;1.77;;
22715;SDS011;11525;51.152;4.456;2023-07-20T10:05:33;2.83;;;1.67;;
22715;SDS011;11525;51.152;4.456;2023-07-20T10:08:02;1.58;;;1.40;;
22715;SDS011;11525;51.152;4.456;2023-07-20T10:10:33;9.25;;;2.28;;
22715;SDS011;11525;51.152;4.456;2023-07-20T10:13:00;5.03;;;1.83;;
22715;SDS011;11525;51.152;4.456;2023-07-20T10:15:36;5.35;;;2.47;;
22715;SDS011;11525;51.152;4.456;2023-07-20T10:18:18;2.63;;;1.80;;
22715;SDS011;11525;51.152;4.456;2023-07-20T10:20:54;2.00;;;1.80;;
22715;SDS011;11525;51.152;4.456;2023-07-20T10:23:22;2.33;;;1.70;;
22715;SDS011;11525;51.152;4.456;2023-07-20T10:25:49;2.50;;;1.92;;
22715;SDS011;11525;51.152;4.456;2023-07-20T10:28:15;3.47;;;1.90;;
22715;SDS011;11525;51.152;4.456;2023-07-20T10:30:41;2.60;;;1.98;;
22715;SDS011;11525;51.152;4.456;2023-07-20T10:33:08;2.55;;;1.90;;
22715;SDS011;11525;51.152;4.456;2023-07-20T10:38:19;4.93;;;1.92;;
22715;SDS011;11525;51.152;4.456;2023-07-20T10:41:02;3.08;;;1.40;;
22715;SDS011;11525;51.152;4.456;2023-07-20T10:43:28;2.35;;;1.40;;
22715;SDS011;11525;51.152;4.456;2023-07-20T10:45:55;3.38;;;1.05;;
22715;SDS011;11525;51.152;4.456;2023-07-20T10:48:24;2.90;;;1.00;;
22715;SDS011;11525;51.152;4.456;2023-07-20T10:53:41;0.90;;;0.60;;
22715;SDS011;11525;51.152;4.456;2023-07-20T10:56:08;0.70;;;0.70;;
22715;SDS011;11525;51.152;4.456;2023-07-20T10:58:38;3.15;;;1.00;;
22715;SDS011;11525;51.152;4.456;2023-07-20T11:01:05;2.70;;;0.80;;
22715;SDS011;11525;51.152;4.456;2023-07-20T11:03:35;2.22;;;0.85;;
22715;SDS011;11525;51.152;4.456;2023-07-20T11:08:50;1.73;;;0.85;;
22715;SDS011;11525;51.152;4.456;2023-07-20T11:11:21;1.88;;;0.82;;
22715;SDS011;11525;51.152;4.456;2023-07-20T11:13:55;1.02;;;0.80;;
22715;SDS011;11525;51.152;4.456;2023-07-20T11:16:32;2.92;;;1.00;;
22715;SDS011;11525;51.152;4.456;2023-07-20T11:19:02;1.50;;;0.80;;
22715;SDS011;11525;51.152;4.456;2023-07-20T11:21:29;0.95;;;0.75;;
22715;SDS011;11525;51.152;4.456;2023-07-20T11:24:02;3.25;;;0.82;;
22715;SDS011;11525;51.152;4.456;2023-07-20T11:26:29;1.17;;;0.80;;
22715;SDS011;11525;51.152;4.456;2023-07-20T11:28:55;1.20;;;0.80;;
22715;SDS011;11525;51.152;4.456;2023-07-20T11:31:21;2.20;;;0.70;;
22715;SDS011;11525;51.152;4.456;2023-07-20T11:33:46;3.25;;;0.65;;
22715;SDS011;11525;51.152;4.456;2023-07-20T11:36:13;2.42;;;0.77;;
22715;SDS011;11525;51.152;4.456;2023-07-20T11:38:41;0.70;;;0.60;;
22715;SDS011;11525;51.152;4.456;2023-07-20T11:41:10;2.17;;;0.88;;
22715;SDS011;11525;51.152;4.456;2023-07-20T11:43:37;3.55;;;1.00;;
22715;SDS011;11525;51.152;4.456;2023-07-20T11:46:04;0.90;;;0.82;;
22715;SDS011;11525;51.152;4.456;2023-07-20T11:48:31;1.92;;;0.90;;
22715;SDS011;11525;51.152;4.456;2023-07-20T11:50:56;1.95;;;1.15;;
22715;SDS011;11525;51.152;4.456;2023-07-20T11:53:22;1.67;;;0.85;;
22715;SDS011;11525;51.152;4.456;2023-07-20T11:55:50;1.17;;;0.70;;
22715;SDS011;11525;51.152;4.456;2023-07-20T11:58:17;1.73;;;1.00;;
22715;SDS011;11525;51.152;4.456;2023-07-20T12:00:43;1.35;;;0.90;;
22715;SDS011;11525;51.152;4.456;2023-07-20T12:03:10;1.35;;;0.90;;
22715;SDS011;11525;51.152;4.456;2023-07-20T12:05:38;2.15;;;0.80;;
22715;SDS011;11525;51.152;4.456;2023-07-20T12:08:04;1.20;;;0.70;;
22715;SDS011;11525;51.152;4.456;2023-07-20T12:10:30;0.82;;;0.70;;
22715;SDS011;11525;51.152;4.456;2023-07-20T12:13:01;1.73;;;0.80;;
22715;SDS011;11525;51.152;4.456;2023-07-20T12:15:31;0.70;;;0.70;;
22715;SDS011;11525;51.152;4.456;2023-07-20T12:18:00;1.17;;;0.90;;
22715;SDS011;11525;51.152;4.456;2023-07-20T12:20:28;2.25;;;1.23;;
22715;SDS011;11525;51.152;4.456;2023-07-20T12:22:56;1.83;;;0.90;;
22715;SDS011;11525;51.152;4.456;2023-07-20T12:25:42;1.20;;;0.93;;
22715;SDS011;11525;51.152;4.456;2023-07-20T12:28:14;1.60;;;0.98;;
22715;SDS011;11525;51.152;4.456;2023-07-20T12:30:41;3.35;;;0.90;;
22715;SDS011;11525;51.152;4.456;2023-07-20T12:33:08;1.33;;;1.17;;
22715;SDS011;11525;51.152;4.456;2023-07-20T12:35:34;2.35;;;1.33;;
22715;SDS011;11525;51.152;4.456;2023-07-20T12:37:59;2.08;;;1.27;;
22715;SDS011;11525;51.152;4.456;2023-07-20T12:40:25;1.55;;;1.30;;
22715;SDS011;11525;51.152;4.456;2023-07-20T12:42:52;1.55;;;1.20;;
22715;SDS011;11525;51.152;4.456;2023-07-20T12:45:17;1.25;;;1.10;;
22715;SDS011;11525;51.152;4.456;2023-07-20T12:47:43;1.20;;;1.10;;
22715;SDS011;11525;51.152;4.456;2023-07-20T12:50:10;1.55;;;1.00;;
22715;SDS011;11525;51.152;4.456;2023-07-20T12:52:36;1.98;;;1.65;;
22715;SDS011;11525;51.152;4.456;2023-07-20T12:55:04;2.08;;;1.60;;
22715;SDS011;11525;51.152;4.456;2023-07-20T12:57:31;1.67;;;1.58;;
22715;SDS011;11525;51.152;4.456;2023-07-20T12:59:58;1.63;;;1.52;;
22715;SDS011;11525;51.152;4.456;2023-07-20T13:02:24;1.85;;;1.60;;
22715;SDS011;11525;51.152;4.456;2023-07-20T13:04:49;2.40;;;1.45;;
22715;SDS011;11525;51.152;4.456;2023-07-20T13:07:15;1.63;;;1.50;;
22715;SDS011;11525;51.152;4.456;2023-07-20T13:09:41;2.13;;;1.70;;
22715;SDS011;11525;51.152;4.456;2023-07-20T13:12:07;3.83;;;1.73;;
22715;SDS011;11525;51.152;4.456;2023-07-20T13:14:33;3.80;;;1.77;;
22715;SDS011;11525;51.152;4.456;2023-07-20T13:16:59;3.33;;;1.90;;
22715;SDS011;11525;51.152;4.456;2023-07-20T13:19:24;1.77;;;1.67;;
22715;SDS011;11525;51.152;4.456;2023-07-20T13:21:50;2.88;;;1.75;;
22715;SDS011;11525;51.152;4.456;2023-07-20T13:24:16;1.65;;;1.52;;
22715;SDS011;11525;51.152;4.456;2023-07-20T13:26:42;3.78;;;1.88;;
22715;SDS011;11525;51.152;4.456;2023-07-20T13:29:08;2.25;;;1.42;;
22715;SDS011;11525;51.152;4.456;2023-07-20T13:31:34;1.80;;;1.70;;
22715;SDS011;11525;51.152;4.456;2023-07-20T13:34:00;3.80;;;1.92;;
22715;SDS011;11525;51.152;4.456;2023-07-20T13:36:25;2.03;;;1.80;;
22715;SDS011;11525;51.152;4.456;2023-07-20T13:38:51;1.88;;;1.77;;
22715;SDS011;11525;51.152;4.456;2023-07-20T13:41:17;1.95;;;1.77;;
22715;SDS011;11525;51.152;4.456;2023-07-20T13:43:44;1.88;;;1.67;;
22715;SDS011;11525;51.152;4.456;2023-07-20T13:46:09;2.38;;;1.90;;
22715;SDS011;11525;51.152;4.456;2023-07-20T13:48:35;2.97;;;1.88;;
22715;SDS011;11525;51.152;4.456;2023-07-20T13:51:01;2.15;;;1.70;;
22715;SDS011;11525;51.152;4.456;2023-07-20T13:53:27;2.78;;;2.15;;
22715;SDS011;11525;51.152;4.456;2023-07-20T13:55:53;2.42;;;2.00;;
22715;SDS011;11525;51.152;4.456;2023-07-20T13:58:19;2.45;;;2.25;;
22715;SDS011;11525;51.152;4.456;2023-07-20T14:00:45;2.50;;;2.30;;
22715;SDS011;11525;51.152;4.456;2023-07-20T14:03:11;2.97;;;2.17;;
22715;SDS011;11525;51.152;4.456;2023-07-20T14:05:36;3.78;;;2.30;;
22715;SDS011;11525;51.152;4.456;2023-07-20T14:08:02;5.53;;;3.03;;
22715;SDS011;11525;51.152;4.456;2023-07-20T14:10:28;5.28;;;3.22;;
22715;SDS011;11525;51.152;4.456;2023-07-20T14:12:54;5.85;;;3.33;;
22715;SDS011;11525;51.152;4.456;2023-07-20T14:15:19;5.47;;;3.30;;
22715;SDS011;11525;51.152;4.456;2023-07-20T14:17:45;5.18;;;2.90;;
22715;SDS011;11525;51.152;4.456;2023-07-20T14:20:11;4.97;;;3.10;;
22715;SDS011;11525;51.152;4.456;2023-07-20T14:22:37;3.38;;;2.53;;
22715;SDS011;11525;51.152;4.456;2023-07-20T14:25:03;3.65;;;2.50;;
22715;SDS011;11525;51.152;4.456;2023-07-20T14:27:29;4.63;;;2.47;;
22715;SDS011;11525;51.152;4.456;2023-07-20T14:29:55;3.30;;;2.33;;
22715;SDS011;11525;51.152;4.456;2023-07-20T14:32:21;2.55;;;2.00;;
22715;SDS011;11525;51.152;4.456;2023-07-20T14:34:46;3.00;;;2.33;;
22715;SDS011;11525;51.152;4.456;2023-07-20T14:37:12;2.10;;;2.00;;
22715;SDS011;11525;51.152;4.456;2023-07-20T14:39:38;3.05;;;2.30;;
22715;SDS011;11525;51.152;4.456;2023-07-20T14:42:04;3.20;;;2.72;;
22715;SDS011;11525;51.152;4.456;2023-07-20T14:44:30;3.22;;;2.20;;
22715;SDS011;11525;51.152;4.456;2023-07-20T14:46:55;6.03;;;2.40;;
22715;SDS011;11525;51.152;4.456;2023-07-20T14:49:21;2.38;;;1.80;;
22715;SDS011;11525;51.152;4.456;2023-07-20T14:51:47;4.50;;;3.00;;
22715;SDS011;11525;51.152;4.456;2023-07-20T14:54:14;5.30;;;2.30;;
22715;SDS011;11525;51.152;4.456;2023-07-20T14:56:47;3.30;;;3.00;;
22715;SDS011;11525;51.152;4.456;2023-07-20T14:59:15;2.55;;;2.35;;